createdAt,value
2022-09-09T00:05:22.947Z,39.8
2022-09-09T00:11:00.536Z,39.7
2022-09-09T04:59:47.356Z,37.6
2022-09-09T05:05:25.628Z,37.6
2022-09-09T05:10:47.406Z,37.6
2022-09-09T05:16:27.880Z,37.6
2022-09-09T05:22:11.458Z,37.5
2022-09-09T05:27:33.470Z,37.5
2022-09-09T05:32:43.623Z,37.4
2022-09-09T05:38:22.971Z,37.4
2022-09-09T05:44:02.652Z,37.4
2022-09-09T05:49:41.097Z,37.4
2022-09-09T05:55:18.784Z,37.3
2022-09-09T06:00:40.540Z,37.3
2022-09-09T06:06:23.180Z,37.8
2022-09-09T06:12:01.699Z,36.9
2022-09-09T06:17:38.934Z,37.3
2022-09-09T06:23:16.460Z,36.9
2022-09-09T06:28:54.680Z,41.4
2022-09-09T06:34:32.735Z,43.8
2022-09-09T06:40:10.740Z,45.1
2022-09-09T06:45:48.474Z,45.8
2022-09-09T06:51:27.186Z,46.6
2022-09-09T06:57:15.623Z,47.6
2022-09-09T07:07:40.591Z,48.2
2022-09-09T07:13:26.243Z,48.7
2022-09-09T07:19:08.140Z,49.4
2022-09-09T07:24:46.360Z,50.2
2022-09-09T07:30:31.427Z,50.9
2022-09-09T07:36:09.379Z,51.4
2022-09-09T07:41:52.255Z,51.8
2022-09-09T07:52:57.565Z,54
2022-09-09T07:58:38.370Z,54.6
2022-09-09T08:04:01.059Z,55.6
2022-09-09T08:09:39.104Z,55.2
2022-09-09T08:15:48.605Z,54.4
2022-09-09T08:21:10.327Z,54.6
2022-09-09T08:26:48.496Z,56
2022-09-09T08:32:26.376Z,55.1
2022-09-09T08:38:11.271Z,54.1
2022-09-09T08:43:52.897Z,55.1
2022-09-09T08:49:20.718Z,55.8
2022-09-09T08:55:07.556Z,56.7
2022-09-09T09:05:57.401Z,58.3
2022-09-09T13:34:59.413Z,49.6
2022-09-09T13:40:40.308Z,48.6
2022-09-09T13:46:18.202Z,48.1
2022-09-09T13:51:58.706Z,47.9
2022-09-09T13:57:21.170Z,48
2022-09-09T14:03:28.531Z,48.3
2022-09-09T14:09:06.652Z,48.2
2022-09-09T14:14:44.724Z,48.3
2022-09-09T14:20:22.108Z,47.9
2022-09-09T14:26:05.941Z,47.8
2022-09-09T14:31:58.204Z,47
2022-09-09T14:37:19.420Z,47
2022-09-09T14:42:58.147Z,46.8
2022-09-09T14:48:20.589Z,45.6
2022-09-09T14:53:43.962Z,45.1
2022-09-09T14:59:22.080Z,44.5
2022-09-09T15:05:01.279Z,44.1
2022-09-09T15:10:38.278Z,43.7
2022-09-09T15:16:19.747Z,43.3
2022-09-09T15:22:02.361Z,42.8
2022-09-09T15:27:40.351Z,42.4
2022-09-09T15:33:18.755Z,42.1
2022-09-09T15:38:56.259Z,41.5
2022-09-09T15:44:34.492Z,41.1
2022-09-09T15:50:17.599Z,39.8
2022-09-09T15:56:18.046Z,38.3
2022-09-09T16:01:56.206Z,37.5
2022-09-09T16:07:39.940Z,36.8
2022-09-09T16:13:23.220Z,36.3
2022-09-09T16:18:59.790Z,35.9
2022-09-09T16:24:37.498Z,35.5
2022-09-09T16:30:19.007Z,35.3
2022-09-09T16:36:01.709Z,35.1
2022-09-09T16:41:38.947Z,34.9
2022-09-09T16:47:17.751Z,34.8
2022-09-09T16:52:54.728Z,34.8
2022-09-09T16:58:32.804Z,34.7
2022-09-09T17:04:16.840Z,34.6
2022-09-09T17:09:55.035Z,34.6
2022-09-09T17:15:17.241Z,34.6
2022-09-09T17:21:19.556Z,34.5
2022-09-09T17:32:26.907Z,34.4
2022-09-09T17:38:04.625Z,34.4
2022-09-09T17:43:31.543Z,34.4
2022-09-09T17:48:54.042Z,34.3
2022-09-09T17:54:31.802Z,34.3
2022-09-09T18:00:09.146Z,34.4
2022-09-09T18:05:48.629Z,34.4
2022-09-09T18:11:26.693Z,34.5
2022-09-09T18:17:02.750Z,34.5
2022-09-09T18:22:40.318Z,34.5
2022-09-09T18:28:20.230Z,34.5
2022-09-09T18:33:58.626Z,34.4
2022-09-09T18:39:40.313Z,34.3
2022-09-09T18:45:18.710Z,34.1
2022-09-09T18:50:55.624Z,34
2022-09-09T18:56:18.180Z,33.9
2022-09-09T19:01:56.490Z,33.9
2022-09-09T19:07:33.557Z,33.9
2022-09-09T19:13:02.791Z,33.8
2022-09-09T19:18:40.624Z,33.8
2022-09-09T19:24:02.244Z,33.6
2022-09-09T19:29:24.292Z,33.5
2022-09-09T19:35:54.366Z,33.4
2022-09-09T19:41:01.076Z,33.3
2022-09-09T19:52:02.077Z,33.1
2022-09-09T19:57:40.709Z,33.1
2022-09-09T20:03:41.795Z,33.1
2022-09-09T20:09:19.847Z,33
2022-09-09T20:14:56.931Z,33
2022-09-09T20:20:34.893Z,32.9
2022-09-09T20:31:44.393Z,32.9
2022-09-09T20:37:22.022Z,32.8
2022-09-09T20:43:01.755Z,32.8
2022-09-09T20:48:39.070Z,32.8
2022-09-09T20:54:22.377Z,32.8
2022-09-09T20:59:59.903Z,32.7
2022-09-09T21:05:40.813Z,32.7
2022-09-09T21:11:18.543Z,32.7
2022-09-09T21:16:57.182Z,32.6
2022-09-09T21:22:18.152Z,32.6
2022-09-09T21:27:55.751Z,32.6
2022-09-09T21:33:42.927Z,32.6
2022-09-09T21:39:25.183Z,32.6
2022-09-09T21:45:02.913Z,32.5
2022-09-09T21:50:44.964Z,32.5
2022-09-09T21:56:07.055Z,32.5
2022-09-09T22:01:29.340Z,32.4
2022-09-09T22:07:08.946Z,32.4
2022-09-09T22:12:30.579Z,32.4
2022-09-09T22:18:07.259Z,32.4
2022-09-09T22:23:45.041Z,32.4
2022-09-09T22:29:06.780Z,32.4
2022-09-09T22:34:28.751Z,32.3
2022-09-09T22:40:07.016Z,32.3
2022-09-09T22:44:57.564Z,32.3
2022-09-09T22:56:02.026Z,32.3
2022-09-09T23:01:40.428Z,32.3
2022-09-09T23:07:17.662Z,32.3
2022-09-09T23:12:40.174Z,32.3
2022-09-09T23:18:02.377Z,32.2
2022-09-09T23:23:39.143Z,32.2
2022-09-09T23:29:17.199Z,32.2
2022-09-09T23:39:30.479Z,32.1
2022-09-09T23:44:37.797Z,32.1
2022-09-09T23:49:43.924Z,32.1
2022-09-09T23:55:06.064Z,32.1
